createdAt,value
2019-03-20T00:00:26.327Z,3.20
2019-03-20T00:03:31.451Z,3.10
2019-03-20T00:06:36.533Z,3.10
2019-03-20T00:09:41.605Z,3.00
2019-03-20T00:12:46.730Z,3.00
2019-03-20T00:15:51.855Z,3.00
2019-03-20T00:18:56.921Z,3.00
2019-03-20T00:22:01.993Z,2.90
2019-03-20T00:25:07.277Z,2.90
2019-03-20T00:28:12.427Z,2.90
2019-03-20T00:31:17.472Z,2.80
2019-03-20T00:34:22.595Z,2.80
2019-03-20T00:37:27.709Z,2.80
2019-03-20T00:40:32.837Z,2.80
2019-03-20T00:43:37.806Z,2.80
2019-03-20T00:46:43.014Z,2.80
2019-03-20T00:49:48.045Z,2.80
2019-03-20T00:52:53.131Z,2.80
2019-03-20T00:55:58.231Z,2.80
2019-03-20T00:59:03.364Z,2.80
2019-03-20T01:02:08.396Z,2.80
2019-03-20T01:05:14.032Z,2.80
2019-03-20T01:08:19.081Z,2.70
2019-03-20T01:11:24.080Z,2.60
2019-03-20T01:14:29.127Z,2.60
2019-03-20T01:17:34.339Z,2.50
2019-03-20T01:20:39.384Z,2.50
2019-03-20T01:23:44.504Z,2.50
2019-03-20T01:26:49.540Z,2.50
2019-03-20T01:29:54.535Z,2.40
2019-03-20T01:33:03.693Z,2.40
2019-03-20T01:36:08.822Z,2.40
2019-03-20T01:39:13.853Z,2.40
2019-03-20T01:42:18.838Z,2.30
2019-03-20T01:45:23.948Z,2.30
2019-03-20T01:48:28.937Z,2.30
2019-03-20T01:51:33.976Z,2.20
2019-03-20T01:54:38.947Z,2.10
2019-03-20T01:57:44.063Z,2.10
2019-03-20T02:00:49.203Z,2.10
2019-03-20T02:03:54.160Z,2.10
2019-03-20T02:06:59.284Z,2.00
2019-03-20T02:10:04.731Z,2.00
2019-03-20T02:13:09.874Z,2.00
2019-03-20T02:16:14.828Z,2.00
2019-03-20T02:19:19.875Z,2.00
2019-03-20T02:22:24.977Z,2.00
2019-03-20T02:25:32.308Z,2.00
2019-03-20T02:28:36.777Z,2.10
2019-03-20T02:31:41.894Z,2.10
2019-03-20T02:34:46.868Z,2.20
2019-03-20T02:37:52.012Z,2.30
2019-03-20T02:40:57.116Z,2.40
2019-03-20T02:44:02.153Z,2.60
2019-03-20T02:47:07.111Z,2.60
2019-03-20T02:50:12.442Z,2.60
2019-03-20T02:53:17.550Z,2.70
2019-03-20T02:56:22.533Z,2.70
2019-03-20T02:59:27.662Z,2.80
2019-03-20T03:02:33.280Z,2.80
2019-03-20T03:05:38.312Z,2.80
2019-03-20T03:08:43.435Z,2.90
2019-03-20T03:11:48.554Z,2.90
2019-03-20T03:14:53.608Z,2.80
2019-03-20T03:17:58.720Z,2.80
2019-03-20T03:21:03.897Z,2.80
2019-03-20T03:24:09.037Z,2.80
2019-03-20T03:27:14.077Z,2.80
2019-03-20T03:30:19.294Z,2.80
2019-03-20T03:33:24.425Z,2.80
2019-03-20T03:36:29.493Z,2.80
2019-03-20T03:39:34.549Z,2.70
2019-03-20T03:42:39.667Z,2.70
2019-03-20T03:45:44.683Z,2.60
2019-03-20T03:48:49.732Z,2.60
2019-03-20T03:51:54.820Z,2.50
2019-03-20T03:54:59.942Z,2.40
2019-03-20T03:58:05.270Z,2.20
2019-03-20T04:01:11.630Z,2.10
2019-03-20T04:04:16.596Z,2.10
2019-03-20T04:07:23.688Z,2.10
2019-03-20T04:10:28.470Z,2.00
2019-03-20T04:13:33.507Z,2.00
2019-03-20T04:16:38.612Z,1.90
2019-03-20T04:19:43.673Z,1.90
2019-03-20T04:22:48.801Z,1.80
2019-03-20T04:25:53.910Z,1.70
2019-03-20T04:29:00.645Z,1.70
2019-03-20T04:32:05.760Z,1.70
2019-03-20T04:35:10.911Z,1.70
2019-03-20T04:38:16.038Z,1.70
2019-03-20T04:41:21.171Z,1.70
2019-03-20T04:44:26.132Z,1.80
2019-03-20T04:47:31.115Z,1.90
2019-03-20T04:50:36.151Z,1.90
2019-03-20T04:53:41.285Z,1.90
2019-03-20T04:56:46.404Z,1.90
2019-03-20T04:59:51.379Z,1.90
2019-03-20T05:02:56.429Z,2.00
2019-03-20T05:06:01.472Z,2.00
2019-03-20T05:09:07.411Z,2.10
2019-03-20T05:12:12.393Z,2.10
2019-03-20T05:15:17.630Z,2.00
2019-03-20T05:18:22.601Z,2.00
2019-03-20T05:21:27.721Z,2.00
2019-03-20T05:24:32.708Z,2.10
2019-03-20T05:27:38.031Z,2.10
2019-03-20T05:30:43.252Z,2.00
2019-03-20T05:33:48.441Z,2.00
2019-03-20T05:36:53.610Z,1.90
2019-03-20T05:39:58.806Z,1.90
2019-03-20T05:43:03.923Z,1.90
2019-03-20T05:46:09.044Z,1.80
2019-03-20T05:49:14.328Z,1.80
2019-03-20T05:52:19.685Z,1.70
2019-03-20T05:55:25.131Z,1.70
2019-03-20T05:58:30.231Z,1.70
2019-03-20T06:01:35.821Z,1.70
2019-03-20T06:04:41.237Z,1.70
2019-03-20T06:07:46.361Z,1.70
2019-03-20T06:10:51.341Z,1.70
2019-03-20T06:13:56.401Z,1.70
2019-03-20T06:17:01.520Z,1.70
2019-03-20T06:20:06.847Z,1.70
2019-03-20T06:23:11.880Z,1.70
2019-03-20T06:26:17.015Z,1.70
2019-03-20T06:29:22.377Z,1.70
2019-03-20T06:32:27.906Z,1.70
2019-03-20T06:35:32.975Z,1.70
2019-03-20T06:38:38.022Z,1.80
2019-03-20T06:41:43.346Z,1.80
2019-03-20T06:44:48.892Z,1.80
2019-03-20T06:47:54.103Z,1.90
2019-03-20T06:50:59.548Z,2.00
2019-03-20T06:54:07.251Z,2.10
2019-03-20T06:57:12.457Z,2.10
2019-03-20T07:00:45.767Z,2.20
2019-03-20T07:04:19.793Z,2.20
2019-03-20T07:07:43.191Z,2.30
2019-03-20T07:11:11.171Z,2.30
2019-03-20T07:14:16.168Z,2.40
2019-03-20T07:17:21.316Z,2.50
2019-03-20T07:20:26.437Z,2.60
2019-03-20T07:23:31.556Z,2.60
2019-03-20T07:26:36.676Z,2.70
2019-03-20T07:29:41.732Z,2.80
2019-03-20T07:32:46.782Z,2.80
2019-03-20T07:35:51.944Z,2.90
2019-03-20T07:38:58.081Z,3.00
2019-03-20T07:42:03.157Z,3.10
2019-03-20T07:45:08.804Z,3.20
2019-03-20T07:48:21.988Z,3.30
2019-03-20T07:51:20.696Z,3.50
2019-03-20T07:54:25.750Z,3.60
2019-03-20T07:57:30.703Z,3.60
2019-03-20T08:00:35.836Z,3.70
2019-03-20T08:03:40.945Z,3.80
2019-03-20T08:06:46.125Z,3.90
2019-03-20T08:09:51.265Z,4.00
2019-03-20T08:12:56.488Z,4.10
2019-03-20T08:16:03.927Z,4.20
2019-03-20T08:19:08.356Z,4.40
2019-03-20T08:22:13.458Z,4.50
2019-03-20T08:25:18.594Z,4.60
2019-03-20T08:28:23.671Z,4.70
2019-03-20T08:31:28.785Z,5.00
2019-03-20T08:34:33.747Z,5.40
2019-03-20T08:37:38.782Z,5.60
2019-03-20T08:40:43.824Z,5.80
2019-03-20T08:43:48.866Z,6.10
2019-03-20T08:46:54.025Z,6.40
2019-03-20T08:49:59.040Z,6.50
2019-03-20T08:53:04.142Z,6.50
2019-03-20T08:56:09.320Z,6.60
2019-03-20T08:59:14.356Z,6.50
2019-03-20T09:02:19.444Z,6.60
2019-03-20T09:05:24.480Z,6.60
2019-03-20T09:08:30.023Z,6.70
2019-03-20T09:11:35.169Z,6.70
2019-03-20T09:14:40.187Z,6.80
2019-03-20T09:17:45.316Z,6.90
2019-03-20T09:20:50.440Z,7.00
2019-03-20T09:23:55.512Z,7.10
2019-03-20T09:27:00.561Z,7.20
2019-03-20T09:30:07.195Z,7.30
2019-03-20T09:33:12.235Z,7.40
2019-03-20T09:36:17.279Z,7.60
2019-03-20T09:39:22.404Z,7.70
2019-03-20T09:42:27.432Z,7.70
2019-03-20T09:45:34.084Z,7.80
2019-03-20T09:48:39.131Z,7.70
2019-03-20T09:51:44.162Z,7.80
2019-03-20T09:54:49.197Z,7.90
2019-03-20T09:57:54.311Z,8.10
2019-03-20T10:00:59.340Z,8.20
2019-03-20T10:04:04.828Z,8.30
2019-03-20T10:07:09.936Z,8.30
2019-03-20T10:10:17.317Z,8.30
2019-03-20T10:13:22.352Z,8.30
2019-03-20T10:16:27.388Z,8.40
2019-03-20T10:19:32.440Z,8.60
2019-03-20T10:22:39.022Z,8.70
2019-03-20T10:25:45.047Z,8.80
2019-03-20T10:28:50.330Z,8.80
2019-03-20T10:31:55.360Z,8.80
2019-03-20T10:35:00.366Z,8.80
2019-03-20T10:38:05.519Z,8.90
2019-03-20T10:41:10.561Z,9.00
2019-03-20T10:44:15.589Z,9.10
2019-03-20T10:47:20.683Z,9.10
2019-03-20T10:50:25.926Z,9.20
2019-03-20T10:53:31.075Z,9.30
2019-03-20T10:56:36.124Z,9.40
2019-03-20T10:59:41.223Z,9.30
2019-03-20T11:02:46.379Z,9.30
2019-03-20T11:05:51.406Z,9.40
2019-03-20T11:08:56.467Z,9.50
2019-03-20T11:12:01.673Z,9.50
2019-03-20T11:15:08.648Z,9.40
2019-03-20T11:18:13.688Z,9.50
2019-03-20T11:21:18.664Z,9.60
2019-03-20T11:24:23.685Z,9.60
2019-03-20T11:27:28.792Z,9.60
2019-03-20T11:30:33.929Z,9.60
2019-03-20T11:33:39.046Z,9.70
2019-03-20T11:36:44.154Z,9.70
2019-03-20T11:39:49.191Z,9.70
2019-03-20T11:42:54.296Z,9.70
2019-03-20T11:45:59.269Z,9.80
2019-03-20T11:49:04.377Z,9.70
2019-03-20T11:52:09.480Z,9.70
2019-03-20T11:55:14.592Z,9.70
2019-03-20T11:58:19.629Z,9.70
2019-03-20T12:01:24.771Z,9.70
2019-03-20T12:04:29.794Z,9.70
2019-03-20T12:07:34.780Z,9.70
2019-03-20T12:10:39.879Z,9.70
2019-03-20T12:13:44.932Z,9.80
2019-03-20T12:16:50.044Z,9.80
2019-03-20T12:19:55.000Z,9.90
2019-03-20T12:23:00.117Z,9.90
2019-03-20T12:26:05.607Z,9.90
2019-03-20T12:29:10.712Z,9.90
2019-03-20T12:32:15.757Z,10.00
2019-03-20T12:35:20.917Z,10.00
2019-03-20T12:38:25.965Z,10.10
2019-03-20T12:41:30.983Z,10.20
2019-03-20T12:44:36.108Z,10.30
2019-03-20T12:47:41.226Z,10.40
2019-03-20T12:50:46.264Z,10.50
2019-03-20T12:53:51.380Z,10.40
2019-03-20T12:56:56.494Z,10.40
2019-03-20T13:00:01.513Z,10.30
2019-03-20T13:03:06.661Z,10.20
2019-03-20T13:06:11.792Z,10.20
2019-03-20T13:09:17.193Z,10.20
2019-03-20T13:12:22.328Z,10.20
2019-03-20T13:15:27.495Z,10.30
2019-03-20T13:18:32.600Z,10.30
2019-03-20T13:21:37.651Z,10.30
2019-03-20T13:24:42.684Z,10.30
2019-03-20T13:27:48.065Z,10.30
2019-03-20T13:30:56.261Z,10.30
2019-03-20T13:34:01.382Z,10.30
2019-03-20T13:37:06.483Z,10.20
2019-03-20T13:40:14.588Z,10.20
2019-03-20T13:43:18.503Z,10.20
2019-03-20T13:46:23.464Z,10.20
2019-03-20T13:49:28.496Z,10.20
2019-03-20T13:52:33.611Z,10.30
2019-03-20T13:55:38.728Z,10.30
2019-03-20T13:58:44.703Z,10.30
2019-03-20T14:01:49.845Z,10.40
2019-03-20T14:04:54.876Z,10.60
2019-03-20T14:07:59.978Z,10.60
2019-03-20T14:11:05.088Z,10.60
2019-03-20T14:14:10.204Z,10.60
2019-03-20T14:17:15.178Z,10.70
2019-03-20T14:20:22.136Z,10.80
2019-03-20T14:23:27.089Z,10.80
2019-03-20T14:26:32.153Z,10.90
2019-03-20T14:29:37.103Z,11.00
2019-03-20T14:32:42.157Z,11.10
2019-03-20T14:35:47.185Z,11.30
2019-03-20T14:38:52.263Z,11.40
2019-03-20T14:41:57.324Z,11.40
2019-03-20T14:45:02.433Z,11.50
2019-03-20T14:48:07.408Z,11.60
2019-03-20T14:51:12.446Z,11.70
2019-03-20T14:54:17.560Z,11.80
2019-03-20T14:57:22.526Z,11.90
2019-03-20T15:00:27.742Z,11.90
2019-03-20T15:03:32.786Z,11.80
2019-03-20T15:06:37.804Z,11.80
2019-03-20T15:09:43.649Z,11.70
2019-03-20T15:12:48.743Z,11.70
2019-03-20T15:15:57.734Z,11.60
2019-03-20T15:19:02.703Z,11.50
2019-03-20T15:22:07.746Z,11.40
2019-03-20T15:25:12.853Z,11.30
2019-03-20T15:28:17.967Z,11.30
2019-03-20T15:31:22.983Z,11.20
2019-03-20T15:34:27.962Z,11.20
2019-03-20T15:37:32.927Z,11.10
2019-03-20T15:40:38.360Z,11.00
2019-03-20T15:43:43.496Z,10.90
2019-03-20T15:46:48.627Z,10.80
2019-03-20T15:49:53.673Z,10.80
2019-03-20T15:52:58.712Z,10.80
2019-03-20T15:56:03.823Z,10.80
2019-03-20T15:59:08.869Z,10.80
2019-03-20T16:02:13.920Z,10.80
2019-03-20T16:05:19.128Z,10.80
2019-03-20T16:08:24.244Z,10.70
2019-03-20T16:11:29.276Z,10.70
2019-03-20T16:14:34.349Z,10.70
2019-03-20T16:17:39.828Z,10.60
2019-03-20T16:20:44.857Z,10.60
2019-03-20T16:23:49.832Z,10.60
2019-03-20T16:26:55.463Z,10.50
2019-03-20T16:30:00.788Z,10.50
2019-03-20T16:33:05.965Z,10.50
2019-03-20T16:36:11.033Z,10.40
2019-03-20T16:39:16.153Z,10.40
2019-03-20T16:42:21.281Z,10.40
2019-03-20T16:45:28.113Z,10.40
2019-03-20T16:48:33.223Z,10.30
2019-03-20T16:51:38.348Z,10.30
2019-03-20T16:54:43.316Z,10.30
2019-03-20T16:57:48.435Z,10.20
2019-03-20T17:00:53.463Z,10.20
2019-03-20T17:03:58.436Z,10.10
2019-03-20T17:07:03.541Z,10.10
2019-03-20T17:10:12.547Z,10.00
2019-03-20T17:13:17.669Z,10.00
2019-03-20T17:16:22.768Z,9.90
2019-03-20T17:19:27.913Z,9.90
2019-03-20T17:22:41.774Z,9.90
2019-03-20T17:25:41.968Z,9.80
2019-03-20T17:28:47.000Z,9.80
2019-03-20T17:31:52.067Z,9.70
2019-03-20T17:34:57.189Z,9.60
2019-03-20T17:38:02.295Z,9.60
2019-03-20T17:41:07.809Z,9.60
2019-03-20T17:44:13.008Z,9.50
2019-03-20T17:47:18.159Z,9.40
2019-03-20T17:50:25.096Z,9.40
2019-03-20T17:53:30.149Z,9.40
2019-03-20T17:56:35.276Z,9.30
2019-03-20T17:59:40.427Z,9.20
2019-03-20T18:02:45.621Z,9.20
2019-03-20T18:05:50.732Z,9.10
2019-03-20T18:08:55.912Z,9.00
2019-03-20T18:12:00.951Z,9.00
2019-03-20T18:15:07.140Z,8.90
2019-03-20T18:18:12.294Z,8.90
2019-03-20T18:21:17.399Z,8.90
2019-03-20T18:24:22.447Z,8.80
2019-03-20T18:27:27.504Z,8.80
2019-03-20T18:30:32.624Z,8.80
2019-03-20T18:33:37.739Z,8.80
2019-03-20T18:36:42.695Z,8.70
2019-03-20T18:39:47.887Z,8.70
2019-03-20T18:42:53.185Z,8.60
2019-03-20T18:45:58.332Z,8.60
2019-03-20T18:49:03.373Z,8.60
2019-03-20T18:52:08.423Z,8.50
2019-03-20T18:55:13.662Z,8.50
2019-03-20T18:58:18.870Z,8.50
2019-03-20T19:01:23.994Z,8.40
2019-03-20T19:04:29.128Z,8.30
2019-03-20T19:07:34.200Z,8.30
2019-03-20T19:10:39.452Z,8.30
2019-03-20T19:13:44.677Z,8.20
2019-03-20T19:16:49.917Z,8.20
2019-03-20T19:19:54.960Z,8.10
2019-03-20T19:23:00.024Z,8.10
2019-03-20T19:26:05.328Z,8.00
2019-03-20T19:29:10.522Z,8.00
2019-03-20T19:32:15.604Z,8.00
2019-03-20T19:35:20.720Z,7.90
2019-03-20T19:38:34.490Z,7.90
2019-03-20T19:41:32.544Z,7.80
2019-03-20T19:44:37.657Z,7.70
2019-03-20T19:47:42.784Z,7.60
2019-03-20T19:50:47.833Z,7.60
2019-03-20T19:53:52.967Z,7.60
2019-03-20T19:56:58.088Z,7.50
2019-03-20T20:00:03.317Z,7.50
2019-03-20T20:03:08.447Z,7.50
2019-03-20T20:06:13.490Z,7.40
2019-03-20T20:09:18.735Z,7.30
2019-03-20T20:12:31.142Z,7.30
2019-03-20T20:15:30.848Z,7.20
2019-03-20T20:18:36.004Z,7.20
2019-03-20T20:25:51.943Z,7.10
2019-03-20T20:28:56.982Z,7.00
2019-03-20T20:32:02.119Z,7.00
2019-03-20T20:35:08.502Z,7.00
2019-03-20T20:38:14.391Z,7.00
2019-03-20T20:41:19.627Z,7.00
2019-03-20T20:44:24.916Z,7.00
2019-03-20T20:47:30.353Z,7.00
2019-03-20T20:50:35.857Z,7.00
2019-03-20T20:53:41.087Z,7.00
2019-03-20T20:56:46.052Z,6.90
2019-03-20T20:59:51.276Z,6.90
2019-03-20T21:02:56.508Z,6.80
2019-03-20T21:06:01.540Z,6.70
2019-03-20T21:09:08.162Z,6.60
2019-03-20T21:12:13.272Z,6.40
2019-03-20T21:15:36.286Z,6.30
2019-03-20T21:19:17.999Z,6.20
2019-03-20T21:23:10.225Z,6.20
2019-03-20T21:26:16.523Z,6.20
2019-03-20T21:29:54.511Z,6.10
2019-03-20T21:33:00.831Z,6.10
2019-03-20T21:37:14.878Z,6.00
2019-03-20T21:40:22.064Z,6.00
2019-03-20T21:44:14.049Z,5.90
2019-03-20T21:47:32.573Z,5.90
2019-03-20T21:51:21.841Z,5.90
2019-03-20T21:54:53.329Z,5.80
2019-03-20T21:58:16.845Z,5.80
2019-03-20T22:01:57.992Z,5.70
2019-03-20T22:05:03.761Z,5.70
2019-03-20T22:08:09.472Z,5.70
2019-03-20T22:11:50.823Z,5.70
2019-03-20T22:15:01.827Z,5.70
2019-03-20T22:18:33.988Z,5.70
2019-03-20T22:22:18.839Z,5.70
2019-03-20T22:25:58.407Z,5.60
2019-03-20T22:29:22.059Z,5.60
2019-03-20T22:33:10.509Z,5.50
2019-03-20T22:36:20.095Z,5.50
2019-03-20T22:40:11.456Z,5.40
2019-03-20T22:43:31.111Z,5.30
2019-03-20T22:47:12.240Z,5.10
2019-03-20T22:50:28.995Z,5.10
2019-03-20T22:54:24.135Z,5.00
2019-03-20T22:57:41.984Z,5.00
2019-03-20T23:00:49.000Z,4.90
2019-03-20T23:04:02.243Z,4.80
2019-03-20T23:07:07.760Z,4.80
2019-03-20T23:10:14.296Z,4.80
2019-03-20T23:13:19.877Z,4.80
2019-03-20T23:16:25.414Z,4.80
2019-03-20T23:19:31.038Z,4.80
2019-03-20T23:22:36.547Z,4.80
2019-03-20T23:25:42.359Z,4.80
2019-03-20T23:28:48.010Z,4.80
2019-03-20T23:31:53.667Z,4.80
2019-03-20T23:34:59.404Z,4.80
2019-03-20T23:38:05.038Z,4.80
2019-03-20T23:41:12.912Z,4.70
2019-03-20T23:44:18.411Z,4.70
2019-03-20T23:47:33.387Z,4.60
2019-03-20T23:50:39.135Z,4.60
2019-03-20T23:53:47.761Z,4.60
2019-03-20T23:56:53.422Z,4.60
